createdAt,value
2022-08-04T00:00:27.548Z,81.90
2022-08-04T00:03:21.852Z,81.80
2022-08-04T00:06:03.522Z,81.30
2022-08-04T00:08:53.100Z,81.40
2022-08-04T00:11:26.154Z,82.90
2022-08-04T00:14:05.896Z,82.70
2022-08-04T00:16:38.462Z,82.60
2022-08-04T00:19:21.171Z,82.00
2022-08-04T00:21:56.168Z,81.70
2022-08-04T00:24:23.997Z,83.00
2022-08-04T00:26:54.519Z,82.20
2022-08-04T00:29:23.268Z,81.90
2022-08-04T00:31:56.794Z,82.10
2022-08-04T00:34:27.628Z,82.50
2022-08-04T00:36:57.174Z,82.50
2022-08-04T00:39:25.730Z,82.10
2022-08-04T00:42:01.262Z,81.60
2022-08-04T00:44:37.749Z,81.40
2022-08-04T00:47:21.164Z,82.40
2022-08-04T00:50:08.200Z,81.70
2022-08-04T00:52:51.460Z,82.60
2022-08-04T00:55:50.312Z,81.50
2022-08-04T00:58:54.976Z,81.80
2022-08-04T01:01:55.461Z,82.30
2022-08-04T01:04:47.671Z,82.90
2022-08-04T01:07:28.815Z,82.00
2022-08-04T01:10:23.085Z,82.70
2022-08-04T01:13:15.351Z,83.20
2022-08-04T01:16:07.687Z,83.70
2022-08-04T01:19:05.757Z,84.20
2022-08-04T01:21:53.625Z,84.00
2022-08-04T01:24:36.952Z,84.00
2022-08-04T01:27:09.949Z,84.90
2022-08-04T01:29:56.556Z,84.60
2022-08-04T01:32:26.668Z,85.10
2022-08-04T01:35:21.558Z,85.30
2022-08-04T01:38:18.260Z,84.70
2022-08-04T01:40:54.224Z,84.80
2022-08-04T01:43:21.690Z,85.60
2022-08-04T01:45:58.258Z,86.40
2022-08-04T01:48:27.721Z,86.20
2022-08-04T01:50:58.867Z,85.90
2022-08-04T01:53:32.724Z,85.30
2022-08-04T01:56:01.769Z,86.30
2022-08-04T01:58:33.919Z,86.50
2022-08-04T02:01:10.926Z,86.50
2022-08-04T02:04:19.947Z,87.10
2022-08-04T02:06:38.256Z,87.20
2022-08-04T02:09:54.133Z,87.20
2022-08-04T02:12:38.364Z,87.60
2022-08-04T02:15:33.678Z,87.70
2022-08-04T02:18:19.701Z,88.50
2022-08-04T02:20:49.480Z,88.80
2022-08-04T02:23:44.274Z,89.10
2022-08-04T02:26:22.145Z,88.80
2022-08-04T02:29:09.036Z,89.10
2022-08-04T02:31:46.836Z,89.50
2022-08-04T02:34:31.876Z,88.50
2022-08-04T02:37:03.159Z,88.40
2022-08-04T02:39:48.758Z,88.20
2022-08-04T02:42:17.404Z,89.50
2022-08-04T02:44:49.975Z,89.90
2022-08-04T02:47:22.301Z,89.70
2022-08-04T02:49:51.896Z,90.00
2022-08-04T02:52:21.076Z,90.10
2022-08-04T02:54:51.734Z,89.70
2022-08-04T02:57:21.576Z,90.00
2022-08-04T03:00:14.211Z,89.50
2022-08-04T03:02:55.801Z,88.80
2022-08-04T03:05:30.473Z,88.20
2022-08-04T03:08:26.096Z,88.20
2022-08-04T03:11:30.222Z,88.70
2022-08-04T03:14:15.519Z,88.70
2022-08-04T03:17:30.532Z,88.60
2022-08-04T03:20:18.864Z,87.50
2022-08-04T03:23:23.792Z,87.50
2022-08-04T03:26:17.332Z,87.90
2022-08-04T03:28:47.729Z,88.40
2022-08-04T03:31:43.112Z,87.40
2022-08-04T03:34:25.600Z,87.70
2022-08-04T03:37:11.203Z,88.20
2022-08-04T03:40:14.088Z,87.50
2022-08-04T03:42:50.365Z,88.40
2022-08-04T03:45:32.701Z,88.60
2022-08-04T03:48:28.803Z,88.00
2022-08-04T03:51:39.634Z,88.60
2022-08-04T03:54:53.794Z,89.50
2022-08-04T03:57:27.232Z,90.10
2022-08-04T04:00:15.578Z,90.20
2022-08-04T04:02:54.557Z,90.20
2022-08-04T04:06:02.060Z,90.50
2022-08-04T04:08:58.711Z,90.70
2022-08-04T04:11:57.511Z,90.80
2022-08-04T04:14:33.960Z,90.50
2022-08-04T04:17:25.412Z,90.90
2022-08-04T04:20:30.935Z,91.30
2022-08-04T04:23:13.338Z,91.20
2022-08-04T04:25:42.430Z,91.20
2022-08-04T04:28:44.737Z,91.20
2022-08-04T04:31:12.421Z,90.90
2022-08-04T04:34:02.368Z,91.30
2022-08-04T04:36:48.701Z,91.40
2022-08-04T04:39:16.091Z,91.30
2022-08-04T04:42:41.717Z,91.10
2022-08-04T04:45:32.578Z,91.40
2022-08-04T04:48:19.808Z,91.50
2022-08-04T04:51:14.112Z,91.40
2022-08-04T04:53:51.973Z,91.50
2022-08-04T04:56:47.361Z,91.50
2022-08-04T04:59:21.280Z,91.30
2022-08-04T05:02:13.239Z,91.30
2022-08-04T05:05:01.782Z,91.40
2022-08-04T05:07:42.023Z,91.40
2022-08-04T05:10:39.803Z,91.20
2022-08-04T05:14:38.146Z,91.00
2022-08-04T05:16:47.220Z,90.70
2022-08-04T05:19:32.084Z,90.80
2022-08-04T05:22:14.235Z,91.00
2022-08-04T05:24:46.166Z,91.30
2022-08-04T05:27:25.453Z,90.90
2022-08-04T05:30:00.543Z,90.20
2022-08-04T05:32:32.058Z,89.60
2022-08-04T05:35:05.306Z,89.50
2022-08-04T05:37:34.984Z,89.50
2022-08-04T05:40:06.037Z,89.00
2022-08-04T05:42:38.148Z,88.90
2022-08-04T05:45:08.204Z,88.90
2022-08-04T05:47:36.872Z,87.90
2022-08-04T05:50:06.524Z,87.30
2022-08-04T05:52:36.545Z,86.70
2022-08-04T05:55:05.404Z,87.90
2022-08-04T05:57:33.483Z,87.10
2022-08-04T06:00:19.759Z,87.90
2022-08-04T06:02:52.851Z,87.20
2022-08-04T06:05:20.678Z,85.90
2022-08-04T06:08:12.184Z,85.40
2022-08-04T06:10:39.714Z,84.70
2022-08-04T06:13:10.786Z,84.70
2022-08-04T06:16:01.687Z,85.10
2022-08-04T06:19:56.569Z,85.20
2022-08-04T06:21:22.956Z,85.20
2022-08-04T06:24:00.880Z,84.70
2022-08-04T06:26:34.614Z,84.30
2022-08-04T06:29:03.253Z,84.30
2022-08-04T06:32:31.454Z,84.50
2022-08-04T06:34:32.791Z,84.60
2022-08-04T06:37:01.072Z,85.20
2022-08-04T06:39:29.508Z,85.40
2022-08-04T06:42:22.161Z,85.00
2022-08-04T06:44:51.029Z,85.20
2022-08-04T06:47:21.511Z,84.40
2022-08-04T06:51:23.305Z,83.90
2022-08-04T06:52:39.926Z,84.30
2022-08-04T06:55:08.629Z,84.60
2022-08-04T06:57:37.799Z,84.40
2022-08-04T07:00:14.386Z,83.40
2022-08-04T07:02:45.272Z,82.70
2022-08-04T07:05:13.001Z,83.10
2022-08-04T07:07:56.949Z,81.80
2022-08-04T07:10:29.307Z,81.60
2022-08-04T07:12:58.703Z,79.80
2022-08-04T07:15:26.752Z,80.00
2022-08-04T07:17:56.951Z,80.10
2022-08-04T07:20:35.373Z,79.70
2022-08-04T07:23:07.797Z,79.50
2022-08-04T07:26:00.990Z,79.20
2022-08-04T07:28:25.887Z,78.60
2022-08-04T07:30:54.727Z,78.50
2022-08-04T07:33:23.436Z,78.10
2022-08-04T07:36:05.458Z,77.00
2022-08-04T07:38:48.225Z,77.20
2022-08-04T07:41:39.317Z,76.90
2022-08-04T07:44:08.656Z,76.70
2022-08-04T07:46:39.188Z,77.00
2022-08-04T07:49:06.652Z,76.60
2022-08-04T07:51:36.892Z,75.30
2022-08-04T07:54:07.711Z,75.70
2022-08-04T07:56:39.888Z,75.60
2022-08-04T07:59:07.980Z,75.40
2022-08-04T08:01:37.027Z,75.00
2022-08-04T08:04:10.209Z,75.30
2022-08-04T08:06:43.133Z,76.60
2022-08-04T08:09:18.805Z,76.70
2022-08-04T08:12:37.368Z,77.30
2022-08-04T08:14:36.584Z,77.60
2022-08-04T08:17:05.119Z,76.00
2022-08-04T08:19:34.773Z,75.40
2022-08-04T08:22:02.684Z,76.00
2022-08-04T08:24:31.403Z,75.40
2022-08-04T08:27:00.305Z,75.00
2022-08-04T08:29:29.602Z,74.00
2022-08-04T08:32:02.722Z,74.50
2022-08-04T08:34:34.892Z,73.00
2022-08-04T08:37:11.214Z,74.00
2022-08-04T08:40:01.925Z,73.20
2022-08-04T08:42:35.142Z,73.60
2022-08-04T08:45:27.482Z,72.90
2022-08-04T08:48:16.777Z,71.10
2022-08-04T08:50:44.129Z,70.50
2022-08-04T08:53:32.830Z,69.50
2022-08-04T08:56:17.046Z,69.20
2022-08-04T08:59:05.269Z,71.00
2022-08-04T09:01:57.746Z,70.50
2022-08-04T09:04:34.085Z,70.60
2022-08-04T09:07:20.768Z,70.70
2022-08-04T09:10:09.033Z,70.80
2022-08-04T09:12:52.872Z,69.70
2022-08-04T09:15:45.048Z,66.30
2022-08-04T09:18:31.371Z,66.30
2022-08-04T09:21:12.571Z,65.30
2022-08-04T09:23:45.845Z,66.70
2022-08-04T09:26:32.007Z,65.30
2022-08-04T09:29:16.096Z,65.30
2022-08-04T09:32:35.751Z,65.00
2022-08-04T09:35:57.530Z,65.40
2022-08-04T09:38:46.204Z,60.80
2022-08-04T09:41:52.877Z,62.20
2022-08-04T09:45:05.688Z,58.80
2022-08-04T09:48:06.891Z,62.00
2022-08-04T09:50:49.932Z,59.80
2022-08-04T09:53:26.745Z,64.00
2022-08-04T09:56:06.042Z,62.00
2022-08-04T09:58:45.344Z,61.30
2022-08-04T10:01:39.717Z,61.10
2022-08-04T10:04:10.182Z,77.80
2022-08-04T10:07:04.969Z,67.70
2022-08-04T10:10:06.582Z,63.90
2022-08-04T10:12:58.910Z,62.30
2022-08-04T10:16:10.770Z,62.70
2022-08-04T10:18:56.997Z,64.30
2022-08-04T10:21:31.583Z,64.30
2022-08-04T10:24:00.099Z,62.10
2022-08-04T10:26:56.894Z,61.90
2022-08-04T10:29:31.991Z,60.90
2022-08-04T10:32:14.479Z,63.10
2022-08-04T10:35:01.286Z,61.50
2022-08-04T10:38:01.653Z,59.90
2022-08-04T10:40:45.129Z,58.40
2022-08-04T10:43:50.666Z,60.50
2022-08-04T10:46:30.152Z,56.90
2022-08-04T10:49:09.463Z,57.80
2022-08-04T10:51:57.526Z,57.10
2022-08-04T10:54:33.230Z,57.60
2022-08-04T10:57:07.424Z,60.80
2022-08-04T10:59:53.093Z,60.00
2022-08-04T11:02:50.440Z,61.00
2022-08-04T11:05:26.207Z,58.90
2022-08-04T11:08:07.584Z,61.20
2022-08-04T11:11:03.883Z,59.90
2022-08-04T11:13:53.880Z,59.10
2022-08-04T11:16:30.297Z,59.20
2022-08-04T11:19:45.312Z,58.90
2022-08-04T11:22:24.104Z,61.30
2022-08-04T11:25:13.574Z,60.60
2022-08-04T11:27:51.880Z,60.70
2022-08-04T11:30:19.926Z,60.50
2022-08-04T11:32:59.369Z,58.40
2022-08-04T11:35:38.793Z,58.50
2022-08-04T11:38:27.975Z,58.60
2022-08-04T11:41:03.532Z,59.30
2022-08-04T11:44:02.302Z,57.60
2022-08-04T11:46:51.581Z,57.10
2022-08-04T11:49:57.064Z,58.10
2022-08-04T11:52:28.244Z,58.80
2022-08-04T11:54:57.134Z,58.50
2022-08-04T11:57:36.048Z,58.10
2022-08-04T12:00:10.747Z,57.60
2022-08-04T12:03:06.105Z,57.60
2022-08-04T12:05:47.020Z,59.00
2022-08-04T12:08:39.227Z,58.10
2022-08-04T12:11:28.584Z,57.10
2022-08-04T12:14:12.972Z,57.60
2022-08-04T12:16:40.660Z,57.00
2022-08-04T12:19:21.596Z,56.70
2022-08-04T12:21:56.918Z,57.10
2022-08-04T12:24:34.834Z,57.50
2022-08-04T12:27:25.869Z,57.30
2022-08-04T12:30:57.555Z,56.80
2022-08-04T12:32:55.315Z,56.50
2022-08-04T12:35:35.942Z,56.60
2022-08-04T12:38:11.878Z,56.20
2022-08-04T12:40:51.439Z,56.40
2022-08-04T12:43:42.022Z,57.10
2022-08-04T12:46:19.697Z,56.30
2022-08-04T12:48:48.278Z,56.80
2022-08-04T12:51:31.083Z,58.00
2022-08-04T12:54:06.943Z,56.60
2022-08-04T12:56:35.115Z,56.70
2022-08-04T12:59:12.557Z,57.00
2022-08-04T13:02:09.029Z,56.60
2022-08-04T13:04:38.277Z,56.90
2022-08-04T13:07:15.633Z,56.90
2022-08-04T13:09:43.475Z,57.00
2022-08-04T13:12:20.804Z,57.20
2022-08-04T13:14:52.798Z,58.20
2022-08-04T13:17:20.505Z,57.00
2022-08-04T13:19:55.040Z,57.10
2022-08-04T13:22:30.451Z,56.10
2022-08-04T13:26:41.509Z,55.80
2022-08-04T13:27:48.736Z,55.70
2022-08-04T13:30:23.606Z,55.70
2022-08-04T13:32:57.650Z,56.70
2022-08-04T13:35:55.398Z,56.20
2022-08-04T13:38:16.853Z,55.60
2022-08-04T13:40:45.104Z,55.80
2022-08-04T13:44:16.043Z,55.90
2022-08-04T13:46:27.049Z,55.20
2022-08-04T13:49:26.025Z,55.50
2022-08-04T13:51:57.615Z,55.70
2022-08-04T13:54:47.500Z,55.80
2022-08-04T13:57:32.804Z,55.70
2022-08-04T14:00:09.280Z,56.10
2022-08-04T14:02:48.984Z,56.70
2022-08-04T14:05:28.718Z,55.50
2022-08-04T14:08:14.057Z,55.40
2022-08-04T14:10:41.709Z,54.70
2022-08-04T14:13:09.319Z,55.20
2022-08-04T14:16:02.909Z,54.90
2022-08-04T14:18:32.702Z,54.00
2022-08-04T14:21:09.475Z,54.30
2022-08-04T14:23:51.397Z,53.70
2022-08-04T14:26:32.656Z,53.80
2022-08-04T14:29:28.733Z,52.50
2022-08-04T14:32:12.607Z,53.20
2022-08-04T14:34:45.120Z,55.50
2022-08-04T14:37:20.715Z,54.10
2022-08-04T14:40:17.680Z,53.70
2022-08-04T14:42:54.619Z,54.50
2022-08-04T14:45:38.214Z,54.60
2022-08-04T14:48:13.664Z,54.00
2022-08-04T14:50:44.231Z,54.00
2022-08-04T14:53:18.964Z,53.90
2022-08-04T14:55:57.861Z,54.50
2022-08-04T14:58:38.848Z,54.00
2022-08-04T15:01:11.855Z,53.20
2022-08-04T15:03:50.182Z,53.00
2022-08-04T15:06:26.210Z,53.40
2022-08-04T15:08:56.218Z,53.10
2022-08-04T15:11:24.777Z,53.50
2022-08-04T15:13:53.476Z,52.90
2022-08-04T15:16:22.801Z,53.10
2022-08-04T15:18:51.047Z,54.20
2022-08-04T15:21:22.272Z,52.90
2022-08-04T15:23:50.834Z,53.10
2022-08-04T15:26:30.499Z,54.20
2022-08-04T15:29:27.138Z,53.60
2022-08-04T15:32:07.195Z,53.50
2022-08-04T15:35:01.388Z,52.60
2022-08-04T15:38:03.398Z,53.30
2022-08-04T15:40:45.196Z,53.30
2022-08-04T15:43:21.709Z,54.30
2022-08-04T15:46:37.419Z,54.70
2022-08-04T15:48:42.094Z,53.70
2022-08-04T15:51:15.108Z,53.80
2022-08-04T15:54:03.592Z,53.80
2022-08-04T15:56:30.309Z,52.70
2022-08-04T15:58:58.253Z,53.60
2022-08-04T16:01:27.658Z,53.70
2022-08-04T16:04:01.034Z,53.70
2022-08-04T16:06:30.464Z,53.70
2022-08-04T16:08:59.891Z,54.00
2022-08-04T16:11:32.469Z,53.80
2022-08-04T16:14:02.883Z,54.40
2022-08-04T16:16:39.660Z,53.60
2022-08-04T16:19:08.344Z,54.00
2022-08-04T16:21:48.796Z,54.70
2022-08-04T16:24:29.670Z,54.00
2022-08-04T16:27:01.747Z,53.90
2022-08-04T16:29:30.293Z,53.80
2022-08-04T16:32:10.456Z,53.90
2022-08-04T16:34:56.737Z,53.90
2022-08-04T16:37:29.738Z,54.00
2022-08-04T16:40:45.195Z,54.00
2022-08-04T16:43:16.944Z,54.40
2022-08-04T16:45:54.474Z,54.20
2022-08-04T16:48:28.992Z,54.60
2022-08-04T16:51:04.628Z,54.50
2022-08-04T16:54:02.623Z,54.50
2022-08-04T16:56:29.917Z,54.40
2022-08-04T16:58:57.420Z,54.90
2022-08-04T17:01:32.977Z,55.00
2022-08-04T17:04:06.812Z,55.10
2022-08-04T17:06:35.537Z,55.90
2022-08-04T17:09:12.091Z,55.10
2022-08-04T17:11:41.030Z,55.30
2022-08-04T17:14:08.967Z,55.70
2022-08-04T17:16:39.503Z,54.90
2022-08-04T17:19:19.990Z,55.10
2022-08-04T17:22:04.275Z,55.40
2022-08-04T17:24:38.575Z,55.30
2022-08-04T17:28:10.896Z,55.10
2022-08-04T17:29:55.313Z,55.70
2022-08-04T17:32:23.890Z,55.10
2022-08-04T17:34:54.138Z,54.90
2022-08-04T17:37:53.236Z,55.20
2022-08-04T17:40:18.600Z,55.40
2022-08-04T17:44:03.675Z,55.20
2022-08-04T17:46:28.420Z,55.40
2022-08-04T17:49:02.608Z,55.60
2022-08-04T17:52:05.073Z,55.40
2022-08-04T17:54:29.659Z,56.40
2022-08-04T17:57:21.818Z,56.80
2022-08-04T17:59:57.700Z,56.80
2022-08-04T18:02:32.872Z,59.40
2022-08-04T18:05:07.336Z,58.40
2022-08-04T18:08:37.793Z,61.50
2022-08-04T18:10:44.505Z,60.80
2022-08-04T18:13:26.850Z,60.80
2022-08-04T18:16:04.589Z,58.70
2022-08-04T18:18:32.200Z,59.60
2022-08-04T18:21:03.432Z,59.90
2022-08-04T18:23:33.380Z,60.50
2022-08-04T18:26:01.970Z,61.70
2022-08-04T18:28:30.802Z,64.30
2022-08-04T18:31:01.751Z,63.00
2022-08-04T18:33:40.743Z,62.00
2022-08-04T18:36:33.808Z,61.40
2022-08-04T18:39:12.146Z,60.60
2022-08-04T18:42:03.805Z,61.70
2022-08-04T18:44:52.263Z,62.70
2022-08-04T18:47:30.025Z,62.70
2022-08-04T18:50:59.081Z,62.70
2022-08-04T18:52:45.934Z,63.50
2022-08-04T18:55:56.131Z,64.20
2022-08-04T18:58:07.216Z,63.90
2022-08-04T19:00:45.560Z,64.00
2022-08-04T19:03:16.292Z,65.40
2022-08-04T19:05:49.736Z,67.20
2022-08-04T19:08:33.104Z,66.50
2022-08-04T19:13:54.870Z,63.00
2022-08-04T19:16:30.155Z,62.80
2022-08-04T19:19:02.900Z,63.10
2022-08-04T19:21:59.276Z,65.10
2022-08-04T19:24:32.865Z,64.90
2022-08-04T19:29:52.341Z,66.80
2022-08-04T19:32:21.898Z,66.40
2022-08-04T19:34:52.125Z,66.30
2022-08-04T19:37:56.980Z,67.40
2022-08-04T19:40:10.085Z,70.50
2022-08-04T19:42:38.172Z,70.40
2022-08-04T19:45:08.547Z,71.20
2022-08-04T19:48:17.397Z,71.50
2022-08-04T19:50:24.361Z,69.50
2022-08-04T19:52:52.972Z,71.50
2022-08-04T19:55:22.800Z,73.80
2022-08-04T19:58:08.241Z,71.80
2022-08-04T20:00:37.729Z,73.70
2022-08-04T20:03:11.274Z,72.00
2022-08-04T20:05:53.612Z,71.60
2022-08-04T20:08:23.882Z,72.40
2022-08-04T20:10:52.597Z,71.50
2022-08-04T20:13:25.456Z,72.70
2022-08-04T20:16:05.390Z,72.10
2022-08-04T20:18:55.843Z,72.90
2022-08-04T20:21:36.757Z,72.40
2022-08-04T20:24:40.156Z,72.80
2022-08-04T20:27:04.928Z,72.70
2022-08-04T20:29:40.213Z,72.90
2022-08-04T20:32:09.787Z,73.10
2022-08-04T20:34:40.191Z,73.70
2022-08-04T20:37:10.141Z,73.40
2022-08-04T20:39:38.400Z,73.40
2022-08-04T20:42:06.776Z,73.00
2022-08-04T20:44:38.871Z,73.60
2022-08-04T20:47:14.010Z,74.00
2022-08-04T20:49:42.774Z,73.80
2022-08-04T20:52:16.339Z,72.60
2022-08-04T20:54:48.403Z,74.30
2022-08-04T20:57:48.899Z,72.70
2022-08-04T21:00:06.556Z,74.30
2022-08-04T21:02:34.013Z,75.00
2022-08-04T21:05:04.612Z,74.60
2022-08-04T21:10:21.866Z,76.20
2022-08-04T21:12:49.999Z,75.40
2022-08-04T21:15:24.873Z,75.40
2022-08-04T21:17:58.349Z,74.60
2022-08-04T21:20:33.566Z,73.80
2022-08-04T21:23:03.686Z,73.30
2022-08-04T21:25:32.827Z,74.00
2022-08-04T21:28:10.785Z,72.20
2022-08-04T21:30:54.104Z,72.80
2022-08-04T21:33:28.232Z,73.20
2022-08-04T21:36:14.662Z,73.00
2022-08-04T21:38:51.291Z,73.40
2022-08-04T21:41:24.906Z,71.80
2022-08-04T21:43:55.023Z,73.20
2022-08-04T21:46:23.102Z,73.20
2022-08-04T21:48:51.271Z,73.20
2022-08-04T21:51:56.919Z,73.10
2022-08-04T21:54:09.641Z,73.10
2022-08-04T21:56:42.437Z,73.70
2022-08-04T21:59:23.774Z,71.10
2022-08-04T22:01:59.992Z,70.80
2022-08-04T22:04:28.755Z,71.20
2022-08-04T22:06:56.278Z,71.00
2022-08-04T22:09:23.759Z,71.80
2022-08-04T22:11:51.933Z,71.00
2022-08-04T22:14:29.480Z,70.60
2022-08-04T22:17:02.647Z,71.50
2022-08-04T22:19:50.085Z,70.20
2022-08-04T22:22:25.908Z,70.70
2022-08-04T22:24:58.687Z,71.20
2022-08-04T22:27:55.376Z,70.60
2022-08-04T22:30:23.826Z,70.90
2022-08-04T22:32:51.476Z,72.70
2022-08-04T22:35:30.974Z,71.40
2022-08-04T22:38:24.340Z,72.30
2022-08-04T22:41:03.725Z,71.90
2022-08-04T22:43:34.369Z,72.20
2022-08-04T22:46:05.011Z,71.60
2022-08-04T22:48:34.812Z,71.10
2022-08-04T22:51:04.011Z,70.50
2022-08-04T22:53:31.697Z,71.70
2022-08-04T22:56:09.351Z,72.00
2022-08-04T22:58:40.782Z,71.90
2022-08-04T23:01:15.036Z,71.80
2022-08-04T23:03:55.386Z,72.30
2022-08-04T23:06:25.655Z,72.20
2022-08-04T23:08:57.617Z,72.70
2022-08-04T23:11:34.473Z,72.90
2022-08-04T23:14:04.822Z,72.70
2022-08-04T23:16:33.465Z,73.20
2022-08-04T23:19:09.807Z,72.80
2022-08-04T23:21:41.175Z,72.60
2022-08-04T23:24:14.836Z,72.30
2022-08-04T23:26:42.347Z,71.60
2022-08-04T23:29:09.754Z,72.20
2022-08-04T23:31:41.658Z,72.40
2022-08-04T23:34:24.474Z,72.50
2022-08-04T23:36:51.852Z,72.60
2022-08-04T23:39:19.265Z,72.10
2022-08-04T23:41:54.701Z,72.30
2022-08-04T23:44:25.071Z,71.00
2022-08-04T23:47:01.219Z,71.20
2022-08-04T23:49:44.421Z,72.00
2022-08-04T23:52:23.247Z,71.30
2022-08-04T23:54:55.886Z,71.80
2022-08-04T23:57:23.300Z,71.90
2022-08-04T23:59:54.916Z,73.10
